Flight Track Log - Related Links

Times and Time Zones

All times are in EST time to prevent confusion due to time zone crossing. See the FLG3861 flight status page for this flight to view local times or setup timezone preferences in your user account.

Time Position Orientation Groundspeed Altitude Reporting Facility
EST Latitude Longitude Course Direction KTS MPH feet Rate Location/Type
Sun 09:53:58 PM 42.2061 -83.3672 173° South 157 181 1,500  Level Cleveland Center
Sun 09:54:16 PM 42.1917 -83.3650 173° South 169 194 2,200 2,384 Climbing Cleveland Center
Sun 09:55:11 PM 42.1417 -83.3608 176° South 212 244 4,400 2,121 Climbing Cleveland Center
Sun 09:56:12 PM 42.0767 -83.3319 162° South 282 325 6,300 2,016 Climbing Cleveland Center
Sun 09:57:13 PM 42.0828 -83.2289 85° East 286 329 8,500 2,098 Climbing Cleveland Center
Sun 09:58:15 PM 42.1244 -83.1211 62° Northeast 309 356 10,600 2,000 Climbing Cleveland Center
Sun 09:59:16 PM 42.1683 -83.0008 64° Northeast 358 412 12,600 2,016 Climbing Cleveland Center
Sun 10:00:17 PM 42.2017 -82.8689 71° East 386 444 14,700 1,610 Climbing Cleveland Center
Sun 10:01:19 PM 42.2033 -82.7147 89° East 413 475 15,900 1,122 Climbing Cleveland Center
Sun 10:02:20 PM 42.2056 -82.5522 89° East 431 496 17,000 934 Climbing Cleveland Center
Sun 10:03:21 PM 42.2058 -82.3831 90° East 447 514 17,800 927 Climbing Cleveland Center
Sun 10:04:23 PM 42.2075 -82.2083 89° East 463 533 18,900 1,073 Climbing Cleveland Center
Sun 10:05:24 PM 42.2094 -82.0186 89° East 473 544 20,000 1,131 Climbing Cleveland Center
Sun 10:06:25 PM 42.2092 -81.8367 90° East 478 550 21,200 1,122 Climbing Cleveland Center
Sun 10:07:27 PM 42.2097 -81.6517 90° East 485 558 22,300 1,073 Climbing Cleveland Center
Sun 10:08:28 PM 42.2103 -81.4669 90° East 487 560 23,400 1,033 Climbing Cleveland Center
Sun 10:09:29 PM 42.2108 -81.2817 90° East 488 562 24,400 885 Climbing Cleveland Center
Sun 10:10:30 PM 42.2100 -81.0936 90° East 494 568 25,200 829 Climbing Cleveland Center
Sun 10:11:32 PM 42.2100 -80.8694 90° East 504 580 26,100 878 Climbing Cleveland Center
Sun 10:12:33 PM 42.2097 -80.6775 90° East 507 583 27,000 836 Climbing Cleveland Center
Sun 10:13:34 PM 42.2147 -80.4847 88° East 508 585 27,800 683 Climbing Cleveland Center
Sun 10:14:36 PM 42.2178 -80.2886 89° East 516 594 28,400 537 Climbing Cleveland Center
Sun 10:15:37 PM 42.2214 -80.0906 89° East 522 601 28,900 295 Climbing Cleveland Center
Sun 10:16:38 PM 42.2236 -79.9058 89° East 528 608 29,000  Climbing Cleveland Center
Sun 10:17:39 PM 42.2261 -79.7039 89° East 537 618 28,900 -293 Descending Cleveland Center
Sun 10:18:41 PM 42.2281 -79.4967 89° East 549 632 28,400 -439 Descending Cleveland Center
Sun 10:19:42 PM 42.2308 -79.2447 89° East 559 643 28,000 -197 Descending Cleveland Center
Sun 10:20:43 PM 42.2319 -79.0369 90° East 556 640 28,000 -98 Level Cleveland Center
Sun 10:21:44 PM 42.2336 -78.8308 89° East 555 639 27,800 -878 Descending Cleveland Center
Sun 10:22:46 PM 42.2364 -78.6267 89° East 548 631 26,200 -1,561 Descending Cleveland Center
Sun 10:23:47 PM 42.2358 -78.4214 90° East 549 632 24,600 -1,574 Descending Cleveland Center
Sun 10:24:48 PM 42.2347 -78.2211 90° East 543 625 23,000 -1,574 Descending Cleveland Center
Sun 10:25:49 PM 42.2333 -78.0275 90° East 527 606 21,400 -1,574 Descending Cleveland Center
Sun 10:26:50 PM 42.2322 -77.8417 90° East 509 586 19,800 -1,707 Descending Cleveland Center
Sun 10:27:52 PM 42.2311 -77.6297 90° East 484 557 17,900 -1,610 Descending Cleveland Center
Sun 10:28:53 PM 42.2306 -77.4614 90° East 462 532 16,500 -1,475 Descending Cleveland Center
Sun 10:29:54 PM 42.2294 -77.2981 90° East 445 512 14,900 -1,377 Descending Cleveland Center
Sun 10:30:55 PM 42.2264 -77.1408 91° East 428 493 13,700 -1,230 Descending Cleveland Center
Sun 10:31:56 PM 42.2253 -76.9919 91° East 405 466 12,400 -1,230 Descending Cleveland Center
Sun 10:32:57 PM 42.2244 -76.8547 90° East 375 432 11,200 -1,033 Descending Cleveland Center
Sun 10:33:58 PM 42.2222 -76.7275 91° East 347 399 10,300 -927 Descending Cleveland Center
Sun 10:35:00 PM 42.2194 -76.6103 92° East 316 364 9,300 -829 Descending Cleveland Center
Sun 10:36:01 PM 42.2175 -76.4972 91° East 306 352 8,600 -934 Descending Cleveland Center
Sun 10:37:02 PM 42.2161 -76.3731 91° East 302 348 7,400 -1,082 Descending Cleveland Center
Sun 10:38:03 PM 42.2139 -76.2614 92° East 300 345 6,400 -984 Descending Cleveland Center
Sun 10:39:04 PM 42.1906 -76.1603 107° East 303 349 5,400 -836 Descending Cleveland Center
Sun 10:40:05 PM 42.1281 -76.1000 144° Southeast 281 323 4,700 -864 Descending Cleveland Center
Sun 10:41:09 PM 42.0664 -76.0450 146° Southeast 250 288 3,600 -661 Descending New York Center
Sun 10:42:12 PM 42.0758 -75.9733 80° East 195 224 3,300 -250 Descending New York Center
Sun 10:43:09 PM 42.1072 -75.9253 49° Northeast 152 175 3,100 -153 Descending New York Center
Sun 10:44:10 PM 42.1425 -75.9253 360° North 112 129 3,000 -347 Descending New York Center
Sun 10:45:10 PM 42.1706 -75.9500 327° Northwest 101 116 2,400 -496 Descending New York Center
Sun 10:46:11 PM 42.1992 -75.9606 345° North 101 116 2,000 -393 Descending New York Center

Login

Don't have an account? Register now (free) for customized features, flight alerts, and more!